Time;durP1;ratioP1;P1;durP2;ratioP2;P2;SDS_P1;SDS_P2;PMS_P1;PMS_P2;Temp;Humidity;BMP_temperature;BMP_pressure;BME280_temperature;BME280_humidity;BME280_pressure;Samples;Min_cycle;Max_cycle;Signal;HPM_P1;HPM_P2
2021/11/05 00:00:26;;;;;;;;;4.25;4.25;;;;;9.40;100.00;101526.59;5051401;28;45335;-61
2021/11/05 00:02:54;;;;;;;;;5.00;5.00;;;;;9.42;100.00;101528.34;5050134;28;45872;-61
2021/11/05 00:05:21;;;;;;;;;4.00;4.00;;;;;9.47;100.00;101535.22;5044762;28;45584;-61
2021/11/05 00:07:47;;;;;;;;;7.50;4.00;;;;;9.50;100.00;101532.59;5049468;28;45472;-61
2021/11/05 00:10:13;;;;;;;;;3.00;3.00;;;;;9.57;100.00;101542.00;5056199;28;45865;-61
2021/11/05 00:12:38;;;;;;;;;6.50;3.25;;;;;9.56;100.00;101548.06;5056743;28;45412;-61
2021/11/05 00:15:04;;;;;;;;;6.50;3.00;;;;;9.56;100.00;101548.94;5050067;28;45528;-61
2021/11/05 00:17:29;;;;;;;;;7.00;5.00;;;;;9.53;100.00;101537.72;5049107;28;45520;-61
2021/11/05 00:19:55;;;;;;;;;2.25;2.25;;;;;9.52;100.00;101530.81;5051160;28;46313;-61
2021/11/05 00:22:20;;;;;;;;;2.50;2.50;;;;;9.50;100.00;101533.44;5049231;28;45342;-62
2021/11/05 00:24:45;;;;;;;;;6.75;3.75;;;;;9.48;100.00;101545.56;5046985;28;45335;-62
2021/11/05 00:27:11;;;;;;;;;6.00;2.00;;;;;9.41;100.00;101530.91;5049066;28;45643;-62
2021/11/05 00:29:36;;;;;;;;;7.00;6.00;;;;;9.45;100.00;101545.59;5050033;28;45350;-61
2021/11/05 00:32:02;;;;;;;;;3.00;3.00;;;;;9.39;99.36;101545.66;5049314;28;45362;-62
2021/11/05 00:34:28;;;;;;;;;4.50;3.00;;;;;9.38;100.00;101546.53;5047098;28;45375;-59
2021/11/05 00:36:53;;;;;;;;;3.00;3.00;;;;;9.37;100.00;101539.63;5051615;28;45382;-61
2021/11/05 00:39:18;;;;;;;;;2.50;2.50;;;;;9.40;100.00;101542.16;5048682;28;45938;-62
2021/11/05 00:41:44;;;;;;;;;3.25;2.25;;;;;9.41;99.97;101539.59;5050359;28;45397;-61
2021/11/05 00:44:09;;;;;;;;;3.75;3.50;;;;;9.42;100.00;101543.03;5050984;28;45456;-60
2021/11/05 00:46:34;;;;;;;;;7.00;5.00;;;;;9.44;100.00;101549.94;5048302;28;45322;-60
2021/11/05 00:49:00;;;;;;;;;5.00;3.00;;;;;9.44;100.00;101549.94;5049059;28;46281;-61
2021/11/05 00:51:27;;;;;;;;;5.25;3.00;;;;;9.47;100.00;101554.22;5056624;28;45743;-61
2021/11/05 00:53:52;;;;;;;;;8.25;5.00;;;;;9.51;100.00;101555.06;5048706;28;45291;-61
2021/11/05 00:56:17;;;;;;;;;8.00;4.50;;;;;9.43;100.00;101548.22;5048522;28;45438;-61
2021/11/05 00:58:43;;;;;;;;;7.25;5.50;;;;;9.42;100.00;101554.28;5050122;28;45411;-60
2021/11/05 01:01:08;;;;;;;;;6.00;3.50;;;;;9.50;100.00;101563.72;5045822;28;45381;-63
2021/11/05 01:03:34;;;;;;;;;9.00;6.50;;;;;9.49;100.00;101569.78;5056119;28;45243;-61
2021/11/05 01:05:59;;;;;;;;;7.25;3.00;;;;;9.45;100.00;101576.75;5059903;28;45300;-61
2021/11/05 01:08:24;;;;;;;;;4.00;4.00;;;;;9.42;99.76;101588.00;5056292;28;46183;-61
2021/11/05 01:10:50;;;;;;;;;4.00;2.50;;;;;9.40;99.95;101586.28;5066344;28;45251;-61
2021/11/05 01:13:15;;;;;;;;;4.25;3.75;;;;;9.40;100.00;101584.53;5066228;28;45431;-61
2021/11/05 01:15:41;;;;;;;;;5.50;5.50;;;;;9.42;100.00;101585.41;5066488;28;45298;-61
2021/11/05 01:18:06;;;;;;;;;4.50;2.50;;;;;9.47;100.00;101595.75;5064519;28;45417;-60
2021/11/05 01:20:33;;;;;;;;;3.00;3.00;;;;;9.45;99.37;101595.75;5066618;28;45356;-61
2021/11/05 01:22:58;;;;;;;;;6.00;4.50;;;;;9.44;99.81;101596.63;5062419;28;45308;-61
2021/11/05 01:25:24;;;;;;;;;6.00;3.00;;;;;9.40;99.35;101597.50;5057598;28;45264;-60
2021/11/05 01:27:50;;;;;;;;;5.50;3.00;;;;;9.37;100.00;101594.94;5063315;28;46608;-61
2021/11/05 01:30:17;;;;;;;;;4.00;4.00;;;;;9.36;99.80;101594.97;5066230;28;45445;-61
2021/11/05 01:32:43;;;;;;;;;6.00;3.75;;;;;9.35;100.00;101596.69;5065965;28;45306;-62
2021/11/05 01:35:10;;;;;;;;;2.00;2.00;;;;;9.32;100.00;101604.50;5071511;28;45433;-61
2021/11/05 01:37:36;;;;;;;;;5.75;4.25;;;;;9.27;99.73;101606.28;5066149;28;46116;-61
2021/11/05 01:40:02;;;;;;;;;5.00;4.25;;;;;9.20;100.00;101601.16;5066200;28;45324;-61
2021/11/05 01:42:27;;;;;;;;;3.00;3.00;;;;;9.22;99.69;101605.47;5065876;28;45408;-60
2021/11/05 01:44:53;;;;;;;;;6.25;4.75;;;;;9.21;100.00;101606.34;5065584;28;45425;-60
2021/11/05 01:47:18;;;;;;;;;4.00;3.00;;;;;9.20;100.00;101608.94;5064394;28;45416;-59
2021/11/05 01:49:45;;;;;;;;;7.75;4.00;;;;;9.21;100.00;101608.06;5066167;28;45257;-60
2021/11/05 01:52:11;;;;;;;;;8.00;6.00;;;;;9.22;100.00;101617.59;5065654;28;45445;-59
2021/11/05 01:54:36;;;;;;;;;4.50;3.00;;;;;9.22;100.00;101618.44;5066012;28;45399;-60
2021/11/05 01:57:03;;;;;;;;;8.50;5.00;;;;;9.22;99.75;101621.03;5065394;28;45247;-61
2021/11/05 01:59:32;;;;;;;;;5.00;3.75;;;;;9.20;99.77;101622.75;5065992;28;45881;-61
2021/11/05 02:01:59;;;;;;;;;6.50;4.00;;;;;9.20;100.00;101619.31;5065501;28;45603;-61
2021/11/05 02:04:26;;;;;;;;;9.25;7.50;;;;;9.22;99.98;101631.41;5065958;28;45497;-62
2021/11/05 02:06:52;;;;;;;;;4.50;4.50;;;;;9.23;100.00;101625.34;5065489;28;46055;-61
2021/11/05 02:09:20;;;;;;;;;6.25;6.00;;;;;9.27;100.00;101627.03;5065328;28;45403;-62
2021/11/05 02:11:47;;;;;;;;;5.00;3.00;;;;;9.29;100.00;101633.06;5060019;28;45248;-62
2021/11/05 02:14:16;;;;;;;;;8.00;6.00;;;;;9.27;99.56;101629.63;5065490;28;45393;-61
2021/11/05 02:16:45;;;;;;;;;5.50;5.00;;;;;9.24;99.75;101629.66;5065068;28;46274;-61
2021/11/05 02:19:14;;;;;;;;;7.00;4.25;;;;;9.26;100.00;101632.25;5062193;28;45470;-61
2021/11/05 02:21:41;;;;;;;;;4.00;3.25;;;;;9.24;99.62;101629.66;5062332;28;45467;-62
2021/11/05 02:24:07;;;;;;;;;6.50;4.00;;;;;9.25;99.87;101630.53;5051523;28;45519;-62
2021/11/05 02:26:33;;;;;;;;;6.25;4.25;;;;;9.28;99.92;101630.50;5060686;28;46262;-62
2021/11/05 02:28:58;;;;;;;;;10.25;4.25;;;;;9.29;100.00;101632.22;5060693;28;45271;-63
2021/11/05 02:31:24;;;;;;;;;5.50;3.75;;;;;9.36;100.00;101639.06;5060489;28;45322;-64
2021/11/05 02:33:49;;;;;;;;;6.50;3.75;;;;;9.36;99.81;101645.13;5062307;28;45353;-63
2021/11/05 02:36:15;;;;;;;;;7.00;3.00;;;;;9.34;99.65;101643.41;5067181;28;46452;-64
2021/11/05 02:38:41;;;;;;;;;5.75;4.75;;;;;9.34;99.41;101640.81;5061948;28;45303;-64
2021/11/05 02:41:06;;;;;;;;;4.75;3.25;;;;;9.31;99.27;101651.22;5062060;28;45348;-63
2021/11/05 02:43:32;;;;;;;;;4.50;4.00;;;;;9.29;99.02;101651.22;5062710;28;45217;-64
2021/11/05 02:45:57;;;;;;;;;4.25;4.25;;;;;9.27;100.00;101640.00;5059885;28;46108;-61
2021/11/05 02:48:22;;;;;;;;;6.25;3.75;;;;;9.31;100.00;101649.47;5061964;28;45307;-62
2021/11/05 02:50:48;;;;;;;;;4.00;3.00;;;;;9.31;99.40;101652.06;5061745;28;45204;-61
2021/11/05 02:53:14;;;;;;;;;8.00;6.00;;;;;9.32;99.70;101650.34;5050785;28;45477;-61
2021/11/05 02:55:39;;;;;;;;;6.25;3.00;;;;;9.34;99.54;101658.97;5059020;28;45445;-61
2021/11/05 02:58:05;;;;;;;;;10.75;4.50;;;;;9.36;98.80;101658.09;5061689;28;45440;-61
2021/11/05 03:00:31;;;;;;;;;6.50;4.00;;;;;9.36;99.76;101668.47;5061473;28;45317;-61
2021/11/05 03:02:56;;;;;;;;;5.50;3.50;;;;;9.34;98.25;101667.63;5061395;28;45315;-61
2021/11/05 03:05:22;;;;;;;;;6.00;2.50;;;;;9.30;98.62;101672.84;5061362;28;45397;-61
2021/11/05 03:07:47;;;;;;;;;8.75;4.00;;;;;9.28;99.56;101665.06;5061608;28;45362;-60
2021/11/05 03:10:15;;;;;;;;;8.00;6.00;;;;;9.33;99.63;101671.09;5061484;28;45410;-61
2021/11/05 03:12:42;;;;;;;;;7.25;4.75;;;;;9.33;99.21;101671.09;5056862;28;45347;-60
2021/11/05 03:15:09;;;;;;;;;3.00;3.00;;;;;9.36;99.41;101681.44;5060460;28;46084;-61
2021/11/05 03:17:35;;;;;;;;;6.50;4.50;;;;;9.34;98.30;101675.41;5061115;28;45895;-61
2021/11/05 03:20:00;;;;;;;;;4.75;4.75;;;;;9.33;99.06;101684.06;5059766;28;45338;-60
2021/11/05 03:22:26;;;;;;;;;6.50;2.75;;;;;9.30;97.57;101691.88;5061500;28;45330;-60
2021/11/05 03:24:52;;;;;;;;;6.00;4.25;;;;;9.24;98.60;101686.72;5049211;28;46318;-60
2021/11/05 03:27:17;;;;;;;;;6.50;4.00;;;;;9.21;98.61;101680.66;5060968;28;45382;-64
2021/11/05 03:29:43;;;;;;;;;7.25;4.50;;;;;9.25;97.85;101690.19;5059835;28;45269;-60
2021/11/05 03:32:09;;;;;;;;;4.25;4.25;;;;;9.21;97.86;101694.53;5060827;28;45335;-60
2021/11/05 03:34:34;;;;;;;;;5.00;5.00;;;;;9.16;97.18;101701.44;5061393;28;47163;-60
2021/11/05 03:37:00;;;;;;;;;6.75;3.00;;;;;9.12;97.63;101698.03;5067072;28;45290;-60
2021/11/05 03:39:26;;;;;;;;;6.25;3.00;;;;;9.13;98.23;101704.94;5061057;28;45242;-59
2021/11/05 03:41:51;;;;;;;;;5.00;3.50;;;;;9.14;98.21;101705.78;5060951;28;45284;-59
2021/11/05 03:44:17;;;;;;;;;7.00;4.00;;;;;9.16;98.76;101709.22;5060325;28;46014;-59
2021/11/05 03:46:42;;;;;;;;;2.75;2.75;;;;;9.19;99.03;101713.53;5059388;28;45265;-61
2021/11/05 03:49:08;;;;;;;;;10.50;4.25;;;;;9.23;97.64;101718.72;5060832;28;45222;-59
2021/11/05 03:51:34;;;;;;;;;2.00;2.00;;;;;9.24;98.84;101724.78;5061075;28;45469;-60
2021/11/05 03:54:00;;;;;;;;;4.00;3.00;;;;;9.23;97.75;101731.69;5046957;28;46265;-60
2021/11/05 03:56:25;;;;;;;;;6.25;5.25;;;;;9.19;97.74;101729.97;5060848;28;45358;-60
2021/11/05 03:58:51;;;;;;;;;3.50;3.50;;;;;9.16;97.98;101737.75;5060379;28;45281;-60
2021/11/05 04:01:19;;;;;;;;;5.25;5.25;;;;;9.16;98.90;101737.75;5059148;28;45481;-60
2021/11/05 04:03:45;;;;;;;;;2.25;2.25;;;;;9.17;97.85;101738.63;5060416;28;47317;-60
2021/11/05 04:06:10;;;;;;;;;3.75;2.50;;;;;9.17;97.86;101742.06;5060949;28;45217;-60
2021/11/05 04:08:35;;;;;;;;;6.25;4.00;;;;;9.16;98.62;101750.72;5060520;28;45263;-60
2021/11/05 04:11:01;;;;;;;;;5.50;4.25;;;;;9.13;97.55;101750.75;5060716;28;45215;-60
2021/11/05 04:13:26;;;;;;;;;7.00;6.00;;;;;9.12;97.54;101752.47;5060073;28;46022;-60
2021/11/05 04:15:52;;;;;;;;;6.50;4.25;;;;;9.11;97.99;101752.50;5049386;28;45260;-60
2021/11/05 04:18:17;;;;;;;;;3.50;3.00;;;;;9.12;97.68;101755.06;5057614;28;45468;-60
2021/11/05 04:20:43;;;;;;;;;6.50;3.00;;;;;9.14;96.81;101765.44;5060393;28;45485;-60
2021/11/05 04:23:08;;;;;;;;;3.00;3.00;;;;;9.13;97.49;101768.91;5057393;28;45882;-60
2021/11/05 04:25:34;;;;;;;;;3.50;3.50;;;;;9.13;97.25;101779.28;5051289;28;45368;-59
2021/11/05 04:28:01;;;;;;;;;4.25;4.00;;;;;9.12;96.29;101778.41;5060083;28;45309;-60
2021/11/05 04:30:26;;;;;;;;;4.25;3.00;;;;;9.13;97.70;101776.69;5060200;28;45342;-60
2021/11/05 04:32:52;;;;;;;;;4.00;4.00;;;;;9.17;98.38;101780.13;5059781;28;46299;-60
2021/11/05 04:35:17;;;;;;;;;3.00;3.00;;;;;9.17;98.38;101780.97;5066717;28;45252;-59
2021/11/05 04:37:43;;;;;;;;;6.25;3.25;;;;;9.19;99.09;101791.34;5059359;28;45498;-59
2021/11/05 04:40:09;;;;;;;;;4.50;3.00;;;;;9.20;98.72;101787.88;5060011;28;45507;-59
2021/11/05 04:42:34;;;;;;;;;3.75;2.75;;;;;9.20;98.62;101798.25;5059026;28;45264;-59
2021/11/05 04:44:59;;;;;;;;;10.00;3.75;;;;;9.12;98.08;101799.16;5060653;28;45263;-61
2021/11/05 04:47:25;;;;;;;;;5.25;2.00;;;;;9.19;98.45;101806.91;5058548;28;45224;-60
2021/11/05 04:49:50;;;;;;;;;6.25;6.00;;;;;9.20;98.19;101806.03;5060063;28;45154;-60
2021/11/05 04:52:15;;;;;;;;;2.25;2.25;;;;;9.23;97.83;101806.03;5056746;28;45496;-61
2021/11/05 04:54:41;;;;;;;;;5.00;4.25;;;;;9.26;98.10;101816.41;5049457;28;45229;-60
2021/11/05 04:57:09;;;;;;;;;3.00;2.00;;;;;9.28;98.65;101817.25;5059684;28;45461;-60
2021/11/05 04:59:35;;;;;;;;;2.00;2.00;;;;;9.28;98.22;101815.50;5059701;28;45440;-60
2021/11/05 05:02:00;;;;;;;;;5.25;4.00;;;;;9.30;97.64;101820.69;5059147;28;46246;-59
2021/11/05 05:04:26;;;;;;;;;6.50;3.25;;;;;9.30;97.55;101818.97;5059695;28;45446;-60
2021/11/05 05:06:51;;;;;;;;;4.00;2.00;;;;;9.30;96.50;101820.69;5059620;28;45312;-60
2021/11/05 05:09:16;;;;;;;;;4.00;3.00;;;;;9.21;95.66;101821.63;5059748;28;45421;-61
2021/11/05 05:11:45;;;;;;;;;4.00;3.00;;;;;9.24;95.04;101828.50;5059331;28;45420;-60
2021/11/05 05:14:12;;;;;;;;;7.50;3.25;;;;;9.27;96.43;101826.75;5059341;28;45215;-60
2021/11/05 05:16:38;;;;;;;;;3.00;3.00;;;;;9.25;96.58;101832.84;5058884;28;45226;-60
2021/11/05 05:19:03;;;;;;;;;4.50;4.25;;;;;9.30;94.62;101839.72;5045106;28;45433;-60
2021/11/05 05:21:28;;;;;;;;;2.00;2.00;;;;;9.29;95.40;101832.81;5057826;28;45403;-60
2021/11/05 05:23:54;;;;;;;;;6.00;4.00;;;;;9.30;95.30;101837.13;5049885;28;45285;-60
2021/11/05 05:26:19;;;;;;;;;6.00;4.00;;;;;9.33;96.58;101844.88;5056576;28;45318;-60
2021/11/05 05:28:44;;;;;;;;;4.00;2.50;;;;;9.34;96.17;101841.41;5058956;28;45461;-60
2021/11/05 05:31:10;;;;;;;;;8.00;4.00;;;;;9.35;95.90;101850.06;5057355;28;46411;-60
2021/11/05 05:33:36;;;;;;;;;2.00;2.00;;;;;9.37;95.60;101853.50;5059439;28;45318;-60
2021/11/05 05:36:06;;;;;;;;;3.00;3.00;;;;;9.37;94.85;101849.19;5064995;28;45377;-60
2021/11/05 05:38:32;;;;;;;;;1.00;1.00;;;;;9.37;95.90;101850.91;5059172;28;45425;-60
2021/11/05 05:40:57;;;;;;;;;5.00;3.00;;;;;9.37;96.24;101851.78;5058814;28;46322;-61
2021/11/05 05:43:23;;;;;;;;;4.25;2.00;;;;;9.39;95.32;101860.41;5058924;28;45267;-60
2021/11/05 05:45:48;;;;;;;;;6.50;3.00;;;;;9.38;96.22;101866.47;5057317;28;45463;-60
2021/11/05 05:48:14;;;;;;;;;3.00;3.00;;;;;9.36;95.40;101865.63;5059046;28;45395;-62
2021/11/05 05:50:39;;;;;;;;;8.50;3.00;;;;;9.36;95.44;101865.63;5058723;28;46853;-61
2021/11/05 05:53:05;;;;;;;;;4.50;4.00;;;;;9.36;95.65;101875.13;5049113;28;45353;-59
2021/11/05 05:55:30;;;;;;;;;5.00;2.75;;;;;9.34;95.39;101871.69;5057174;28;45457;-59
2021/11/05 05:57:55;;;;;;;;;1.00;1.00;;;;;9.36;94.25;101876.00;5062134;28;45283;-59
2021/11/05 06:00:21;;;;;;;;;8.25;5.75;;;;;9.37;95.48;101874.25;5060764;28;45307;-59
2021/11/05 06:02:47;;;;;;;;;6.25;3.00;;;;;9.40;95.48;101890.66;5062175;28;45477;-60
2021/11/05 06:05:14;;;;;;;;;8.50;5.00;;;;;9.39;95.58;101886.34;5061938;28;45309;-60
2021/11/05 06:07:39;;;;;;;;;4.00;3.25;;;;;9.42;93.59;101888.09;5062287;28;45446;-60
2021/11/05 06:10:06;;;;;;;;;3.00;2.00;;;;;9.41;93.63;101897.63;5061812;28;46337;-61
2021/11/05 06:12:34;;;;;;;;;3.75;3.75;;;;;9.43;94.91;101901.06;5062186;28;45741;-61
2021/11/05 06:15:00;;;;;;;;;7.50;3.00;;;;;9.47;95.46;101901.03;5061832;28;45330;-60
2021/11/05 06:17:25;;;;;;;;;3.50;2.75;;;;;9.46;93.69;101905.38;5061492;28;45376;-60
2021/11/05 06:19:51;;;;;;;;;4.00;4.00;;;;;9.45;95.23;101908.84;5060069;28;46062;-59
2021/11/05 06:22:18;;;;;;;;;4.75;2.50;;;;;9.45;95.28;101908.84;5053053;28;45304;-59
2021/11/05 06:24:43;;;;;;;;;6.25;3.25;;;;;9.45;95.23;101901.91;5049309;28;45379;-59
2021/11/05 06:27:09;;;;;;;;;7.25;5.00;;;;;9.46;94.88;101910.56;5052430;28;45354;-58
2021/11/05 06:29:34;;;;;;;;;4.00;3.00;;;;;9.48;95.27;101916.59;5049887;28;46067;-57
2021/11/05 06:31:59;;;;;;;;;3.00;3.00;;;;;9.44;92.39;101918.34;5050554;28;45277;-58
2021/11/05 06:34:25;;;;;;;;;4.00;4.00;;;;;9.44;93.62;101920.94;5051581;28;45493;-59
2021/11/05 06:36:50;;;;;;;;;3.75;3.00;;;;;9.45;93.71;101929.59;5043044;28;45394;-58
2021/11/05 06:39:16;;;;;;;;;7.00;3.00;;;;;9.46;93.75;101933.91;5049276;28;46164;-58
2021/11/05 06:41:41;;;;;;;;;4.50;2.25;;;;;9.44;93.51;101939.13;5048947;28;45308;-59
2021/11/05 06:44:06;;;;;;;;;2.00;2.00;;;;;9.48;93.65;101944.28;5054309;28;45275;-58
2021/11/05 06:46:32;;;;;;;;;4.00;3.00;;;;;9.54;94.38;101946.84;5057250;28;45375;-59
2021/11/05 06:48:58;;;;;;;;;3.00;2.50;;;;;9.57;93.34;101949.44;5052242;28;46167;-59
2021/11/05 06:51:23;;;;;;;;;5.25;3.25;;;;;9.49;92.22;101952.06;5036215;28;45452;-59
2021/11/05 06:53:48;;;;;;;;;4.50;2.75;;;;;9.50;93.24;101958.97;5047474;28;45594;-59
2021/11/05 06:56:17;;;;;;;;;6.75;6.75;;;;;9.51;92.90;101962.44;5046971;28;45374;-59
2021/11/05 06:58:44;;;;;;;;;8.50;6.50;;;;;9.54;93.78;101965.00;5048502;28;46687;-58
2021/11/05 07:01:11;;;;;;;;;6.75;4.00;;;;;9.59;93.69;101976.22;5058878;28;45437;-59
2021/11/05 07:03:36;;;;;;;;;6.00;4.00;;;;;9.62;93.06;101984.03;5060930;28;45282;-58
2021/11/05 07:06:02;;;;;;;;;2.50;2.00;;;;;9.62;92.67;101989.22;5060225;28;45207;-58
2021/11/05 07:08:28;;;;;;;;;3.75;3.25;;;;;9.59;92.38;101984.03;5060727;28;45394;-59
2021/11/05 07:10:54;;;;;;;;;6.25;3.00;;;;;9.62;94.05;101994.41;5061155;28;45773;-59
2021/11/05 07:13:20;;;;;;;;;5.50;3.25;;;;;9.65;94.44;101997.00;5060771;28;45402;-60
2021/11/05 07:15:47;;;;;;;;;5.00;3.75;;;;;9.68;93.72;101994.38;5059202;28;45445;-59
2021/11/05 07:18:13;;;;;;;;;5.00;3.00;;;;;9.68;94.28;102004.78;5059298;28;46165;-59
2021/11/05 07:20:38;;;;;;;;;10.25;9.25;;;;;9.72;93.84;102007.34;5061089;28;45357;-59
2021/11/05 07:23:05;;;;;;;;;6.00;5.00;;;;;9.71;93.13;102005.63;5056534;28;46676;-59
2021/11/05 07:25:30;;;;;;;;;7.50;4.00;;;;;9.68;91.89;102016.00;5052128;28;45276;-59
2021/11/05 07:27:55;;;;;;;;;7.25;3.25;;;;;9.65;92.45;102021.22;5045984;28;45257;-60
2021/11/05 07:30:21;;;;;;;;;5.75;3.00;;;;;9.67;91.64;102035.06;5060859;28;45161;-60
2021/11/05 07:32:47;;;;;;;;;6.50;6.50;;;;;9.68;91.98;102035.91;5060545;28;45279;-59
2021/11/05 07:35:17;;;;;;;;;8.00;4.50;;;;;9.68;91.52;102041.09;5066750;28;45571;-59
2021/11/05 07:37:43;;;;;;;;;7.00;6.00;;;;;9.65;92.00;102047.19;5060511;28;45387;-59
2021/11/05 07:40:10;;;;;;;;;3.75;3.75;;;;;9.63;91.43;102042.88;5052820;28;45900;-59
2021/11/05 07:42:37;;;;;;;;;6.75;4.50;;;;;9.69;90.19;102063.59;5059419;28;45299;-59
2021/11/05 07:45:08;;;;;;;;;11.75;7.50;;;;;9.70;90.75;102053.22;5060096;28;45426;-58
2021/11/05 07:47:34;;;;;;;;;6.25;5.50;;;;;9.74;92.42;102054.91;5059088;28;45540;-61
2021/11/05 07:50:00;;;;;;;;;11.75;6.50;;;;;9.81;91.87;102062.69;5060323;28;45240;-59
2021/11/05 07:52:26;;;;;;;;;11.25;8.00;;;;;9.83;91.66;102063.56;5056059;28;45247;-58
2021/11/05 07:54:52;;;;;;;;;6.50;6.00;;;;;9.93;91.39;102076.50;5051421;28;45182;-58
2021/11/05 07:57:17;;;;;;;;;2.50;2.50;;;;;10.00;92.42;102078.19;5059864;28;46291;-58
2021/11/05 07:59:43;;;;;;;;;9.25;7.00;;;;;10.08;92.32;102080.78;5060401;28;45320;-59
2021/11/05 08:02:08;;;;;;;;;8.00;8.00;;;;;10.13;91.97;102086.81;5060223;28;45489;-59
2021/11/05 08:04:34;;;;;;;;;15.25;11.75;;;;;10.21;92.80;102090.28;5059204;28;45339;-58
2021/11/05 08:06:59;;;;;;;;;7.00;6.50;;;;;10.27;90.64;102090.25;5059837;28;46409;-59
2021/11/05 08:09:25;;;;;;;;;13.50;6.75;;;;;10.32;92.19;102100.63;5060152;28;45382;-58
2021/11/05 08:11:50;;;;;;;;;12.50;9.00;;;;;10.35;92.03;102098.88;5059839;28;45536;-59
2021/11/05 08:14:15;;;;;;;;;5.50;5.25;;;;;10.41;90.21;102110.09;5060338;28;45531;-60
2021/11/05 08:16:41;;;;;;;;;4.50;4.50;;;;;10.42;91.09;102109.25;5058810;28;46223;-60
2021/11/05 08:19:06;;;;;;;;;3.50;3.50;;;;;10.45;90.33;102117.91;5052804;28;45453;-59
2021/11/05 08:21:32;;;;;;;;;5.75;4.00;;;;;10.41;89.11;102113.59;5047746;28;45429;-59
2021/11/05 08:23:58;;;;;;;;;7.00;6.00;;;;;10.44;90.49;102112.72;5041211;28;45368;-60
2021/11/05 08:26:25;;;;;;;;;2.00;2.00;;;;;10.48;91.30;102115.28;5057313;28;46043;-59
2021/11/05 08:28:50;;;;;;;;;9.00;6.75;;;;;10.50;90.88;102118.72;5053532;28;45750;-58
2021/11/05 08:31:16;;;;;;;;;3.00;3.00;;;;;10.52;89.69;102116.97;5057023;28;45371;-59
2021/11/05 08:33:44;;;;;;;;;4.75;3.50;;;;;10.57;84.31;102122.16;5059770;28;45441;-60
2021/11/05 08:36:11;;;;;;;;;8.75;3.50;;;;;10.56;87.00;102130.81;5065084;28;46869;-60
2021/11/05 08:38:37;;;;;;;;;7.25;3.00;;;;;10.53;87.26;102133.44;5059823;28;45457;-60
2021/11/05 08:41:03;;;;;;;;;2.25;2.25;;;;;10.54;87.17;102128.22;5059895;28;45357;-62
2021/11/05 08:43:32;;;;;;;;;3.50;3.50;;;;;10.55;86.04;102135.16;5059476;28;45344;-61
2021/11/05 08:46:03;;;;;;;;;11.25;8.00;;;;;10.56;86.57;102133.41;5056704;28;46678;-61
2021/11/05 08:48:29;;;;;;;;;9.00;3.75;;;;;10.59;86.36;102138.59;5059680;28;45448;-61
2021/11/05 08:50:58;;;;;;;;;3.25;3.00;;;;;10.59;87.82;102147.25;5059497;28;45294;-61
2021/11/05 08:53:24;;;;;;;;;6.75;6.75;;;;;10.61;87.04;102152.44;5057567;28;45204;-60
2021/11/05 08:55:49;;;;;;;;;3.25;2.25;;;;;10.61;84.78;102140.34;5058310;28;46511;-62
2021/11/05 08:58:15;;;;;;;;;6.50;4.50;;;;;10.66;86.49;102154.19;5059342;28;45434;-62
2021/11/05 09:00:41;;;;;;;;;5.25;3.25;;;;;10.70;85.79;102162.81;5059163;28;45542;-63
2021/11/05 09:03:06;;;;;;;;;6.00;4.00;;;;;10.75;86.91;102161.06;5059466;28;45545;-61
2021/11/05 09:05:35;;;;;;;;;9.25;4.00;;;;;10.88;87.48;102161.84;5059406;28;45326;-61
2021/11/05 09:08:01;;;;;;;;;3.25;3.00;;;;;10.93;87.24;102170.50;5059643;28;45275;-61
2021/11/05 09:10:28;;;;;;;;;3.00;3.00;;;;;10.93;83.58;102173.97;5059094;28;45347;-61
2021/11/05 09:12:53;;;;;;;;;8.00;4.75;;;;;10.92;86.81;102184.38;5056692;28;45330;-63
2021/11/05 09:15:22;;;;;;;;;4.75;1.00;;;;;10.98;86.52;102181.72;5049210;28;46198;-60
2021/11/05 09:17:48;;;;;;;;;4.50;3.50;;;;;11.08;87.39;102180.81;5049648;28;45843;-60
2021/11/05 09:20:15;;;;;;;;;5.75;3.00;;;;;11.16;85.79;102189.41;5047617;28;45278;-61
2021/11/05 09:22:40;;;;;;;;;7.00;5.00;;;;;11.22;86.59;102184.19;5055426;28;45477;-61
2021/11/05 09:25:06;;;;;;;;;4.25;4.00;;;;;11.38;86.13;102190.13;5049344;28;45370;-61
2021/11/05 09:27:32;;;;;;;;;4.00;2.00;;;;;11.63;88.08;102196.03;5054701;28;45228;-60
2021/11/05 09:29:58;;;;;;;;;4.00;3.00;;;;;11.88;87.26;102196.69;5060110;28;45461;-61
2021/11/05 09:32:26;;;;;;;;;5.25;3.75;;;;;12.25;87.07;102199.78;5050690;28;45554;-61
2021/11/05 09:34:54;;;;;;;;;4.25;4.25;;;;;13.30;79.01;102205.38;5065505;28;45308;-60
2021/11/05 09:37:20;;;;;;;;;2.75;2.75;;;;;14.23;78.88;102209.88;5065490;28;45837;-60
2021/11/05 09:39:45;;;;;;;;;9.25;6.50;;;;;14.76;84.95;102210.56;5062754;28;45283;-63
2021/11/05 09:42:11;;;;;;;;;1.00;1.00;;;;;15.28;74.39;102219.00;5062292;28;45190;-61
2021/11/05 09:44:39;;;;;;;;;5.00;5.00;;;;;15.12;79.98;102218.50;5061773;28;45962;-62
2021/11/05 09:47:05;;;;;;;;;3.25;3.25;;;;;14.91;77.58;102209.38;5060672;28;45702;-61
2021/11/05 09:49:32;;;;;;;;;1.75;1.75;;;;;14.85;70.50;102220.84;5062675;28;45444;-63
2021/11/05 09:52:00;;;;;;;;;2.75;1.75;;;;;14.70;76.22;102218.53;5060955;28;45476;-62
2021/11/05 09:54:29;;;;;;;;;10.75;5.75;;;;;14.59;75.22;102228.34;5049496;28;46250;-62
2021/11/05 09:56:55;;;;;;;;;4.25;4.00;;;;;14.42;75.64;102226.06;5062222;28;45658;-61
2021/11/05 09:59:20;;;;;;;;;3.25;3.25;;;;;14.18;73.60;102230.00;5062630;28;45489;-62
2021/11/05 10:01:46;;;;;;;;;4.00;3.00;;;;;13.88;68.74;102233.16;5061835;28;45315;-61
2021/11/05 10:04:12;;;;;;;;;4.00;2.00;;;;;13.69;74.61;102241.31;5061561;28;45991;-61
2021/11/05 10:06:39;;;;;;;;;2.25;2.00;;;;;13.56;71.46;102246.75;5061501;28;45315;-60
2021/11/05 10:09:16;;;;;;;;;6.00;2.50;;;;;13.44;75.59;102253.03;5062019;28;45244;-60
2021/11/05 10:11:42;;;;;;;;;3.50;3.00;;;;;13.39;70.73;102254.84;5059858;28;45440;-61
2021/11/05 10:14:18;;;;;;;;;9.00;5.75;;;;;13.34;76.92;102256.66;5061894;28;46000;-60
2021/11/05 10:16:57;;;;;;;;;2.25;2.25;;;;;13.28;77.34;102257.63;5061243;28;45434;-60
2021/11/05 10:19:23;;;;;;;;;3.00;2.00;;;;;13.26;76.56;102261.16;5060231;28;45383;-60
2021/11/05 10:21:48;;;;;;;;;7.00;4.00;;;;;13.28;76.53;102262.84;5061912;28;45626;-61
2021/11/05 10:24:17;;;;;;;;;3.00;3.00;;;;;13.33;75.04;102260.16;5050251;28;46075;-61
2021/11/05 10:26:43;;;;;;;;;5.00;2.00;;;;;13.36;76.51;102260.13;5061688;28;45776;-61
2021/11/05 10:29:26;;;;;;;;;3.75;3.00;;;;;13.56;77.17;102263.28;5061920;28;45214;-62
2021/11/05 10:32:03;;;;;;;;;3.75;2.50;;;;;13.80;76.75;102267.25;5061793;28;45176;-62
2021/11/05 10:34:45;;;;;;;;;10.25;9.00;;;;;13.89;77.78;102266.25;5055991;28;45942;-61
2021/11/05 10:37:11;;;;;;;;;5.50;3.75;;;;;14.32;76.17;102266.34;5055620;28;45276;-60
2021/11/05 10:39:36;;;;;;;;;4.25;4.25;;;;;14.39;75.68;102273.19;5061441;28;45794;-60
2021/11/05 10:42:02;;;;;;;;;3.50;2.00;;;;;14.39;78.63;102264.47;5055742;28;45430;-60
2021/11/05 10:44:27;;;;;;;;;4.75;3.00;;;;;14.23;72.56;102272.63;5058461;28;46182;-65
2021/11/05 10:47:07;;;;;;;;;1.75;1.50;;;;;14.23;71.08;102280.47;5050511;28;45278;-63
2021/11/05 10:49:33;;;;;;;;;1.75;1.00;;;;;14.30;68.53;102274.22;5051642;28;45458;-65
2021/11/05 10:52:20;;;;;;;;;2.50;1.50;;;;;14.47;71.09;102267.84;5047296;28;45527;-63
2021/11/05 10:54:59;;;;;;;;;4.25;1.00;;;;;14.54;72.55;102272.94;5051361;28;46941;-63
2021/11/05 10:57:41;;;;;;;;;5.50;1.00;;;;;14.44;73.03;102270.53;5061146;28;45253;-64
2021/11/05 11:00:28;;;;;;;;;4.75;1.25;;;;;14.29;68.43;102277.72;5061143;28;45309;-62
2021/11/05 11:02:54;;;;;;;;;2.25;2.25;;;;;14.12;70.20;102271.09;5061363;28;45220;-62
2021/11/05 11:05:37;;;;;;;;;5.00;1.75;;;;;13.91;70.45;102270.56;5060964;28;45212;-62
2021/11/05 11:08:03;;;;;;;;;3.00;1.75;;;;;13.77;66.10;102277.75;5054095;28;45294;-62
2021/11/05 11:10:30;;;;;;;;;1.00;1.00;;;;;13.57;68.85;102271.97;5061166;28;45259;-62
2021/11/05 11:12:56;;;;;;;;;2.75;2.00;;;;;13.55;68.62;102277.22;5060521;28;45298;-61
2021/11/05 11:15:36;;;;;;;;;2.00;2.00;;;;;13.58;70.10;102276.31;5055845;28;47019;-61
2021/11/05 11:18:03;;;;;;;;;2.00;1.00;;;;;13.74;71.83;102266.50;5050071;28;45312;-65
2021/11/05 11:20:34;;;;;;;;;7.50;5.00;;;;;15.64;75.38;102269.72;5049812;28;45292;-65
2021/11/05 11:23:00;;;;;;;;;2.00;1.75;;;;;16.60;68.65;102268.03;5053681;28;45576;-63
2021/11/05 11:25:26;;;;;;;;;3.75;2.00;;;;;16.65;68.78;102266.16;5050463;28;45139;-65